createdAt,value
2018-09-02T00:02:07.023Z,101303.77
2018-09-02T00:04:35.301Z,101306.18
2018-09-02T00:07:03.527Z,101307.88
2018-09-02T00:09:31.799Z,101305.06
2018-09-02T00:12:00.092Z,101308.63
2018-09-02T00:14:28.293Z,101306.31
2018-09-02T00:16:56.595Z,101301.87
2018-09-02T00:19:24.929Z,101297.04
2018-09-02T00:21:53.190Z,101293.72
2018-09-02T00:24:21.404Z,101292.70
2018-09-02T00:26:49.584Z,101295.33
2018-09-02T00:29:17.761Z,101294.95
2018-09-02T00:31:46.092Z,101298.34
2018-09-02T00:34:14.246Z,101290.30
2018-09-02T00:36:42.466Z,101292.47
2018-09-02T00:39:11.072Z,101284.64
2018-09-02T00:41:39.968Z,101279.01
2018-09-02T00:44:08.446Z,101277.40
2018-09-02T00:46:37.037Z,101282.27
2018-09-02T00:49:05.474Z,101286.53
2018-09-02T00:51:33.633Z,101285.02
2018-09-02T00:54:01.785Z,101281.52
2018-09-02T00:56:30.036Z,101285.89
2018-09-02T00:58:58.316Z,101281.91
2018-09-02T01:01:26.490Z,101280.55
2018-09-02T01:03:54.728Z,101289.81
2018-09-02T01:06:22.962Z,101281.63
2018-09-02T01:08:51.201Z,101278.97
2018-09-02T01:11:19.442Z,101285.84
2018-09-02T01:13:47.712Z,101286.03
2018-09-02T01:16:15.878Z,101285.89
2018-09-02T01:18:44.395Z,101290.69
2018-09-02T01:21:13.177Z,101291.45
2018-09-02T01:23:41.326Z,101290.50
2018-09-02T01:26:09.431Z,101296.76
2018-09-02T01:28:38.322Z,101291.23
2018-09-02T01:31:06.638Z,101286.38
2018-09-02T01:33:35.049Z,101287.91
2018-09-02T01:36:03.255Z,101283.36
2018-09-02T01:38:31.444Z,101289.12
2018-09-02T01:40:59.615Z,101283.47
2018-09-02T01:43:27.804Z,101273.58
2018-09-02T01:46:02.545Z,101276.09
2018-09-02T01:48:30.821Z,101278.02
2018-09-02T01:50:58.996Z,101266.66
2018-09-02T01:53:27.151Z,101273.95
2018-09-02T01:55:55.358Z,101274.48
2018-09-02T01:58:23.598Z,101275.98
2018-09-02T02:00:51.813Z,101285.74
2018-09-02T02:03:20.025Z,101282.53
2018-09-02T02:05:49.110Z,101283.19
2018-09-02T02:08:17.235Z,101284.14
2018-09-02T02:10:45.373Z,101286.70
2018-09-02T02:13:13.527Z,101287.30
2018-09-02T02:15:41.723Z,101282.84
2018-09-02T02:18:11.193Z,101283.01
2018-09-02T02:20:39.549Z,101280.84
2018-09-02T02:23:07.813Z,101278.04
2018-09-02T02:25:36.175Z,101272.84
2018-09-02T02:28:05.195Z,101274.20
2018-09-02T02:30:33.298Z,101270.88
2018-09-02T02:33:01.450Z,101268.59
2018-09-02T02:35:29.697Z,101265.06
2018-09-02T02:37:57.930Z,101274.60
2018-09-02T02:40:26.112Z,101277.41
2018-09-02T02:42:54.324Z,101273.97
2018-09-02T02:45:22.605Z,101274.25
2018-09-02T02:47:50.762Z,101279.70
2018-09-02T02:50:18.979Z,101270.10
2018-09-02T02:52:52.798Z,101270.87
2018-09-02T02:55:21.092Z,101271.29
2018-09-02T02:57:49.318Z,101273.77
2018-09-02T03:00:17.567Z,101269.77
2018-09-02T03:02:45.862Z,101263.81
2018-09-02T03:05:14.082Z,101264.70
2018-09-02T03:07:42.276Z,101266.25
2018-09-02T03:10:10.499Z,101262.49
2018-09-02T03:12:38.704Z,101257.48
2018-09-02T03:15:06.968Z,101251.08
2018-09-02T03:17:35.282Z,101247.83
2018-09-02T03:20:03.484Z,101252.96
2018-09-02T03:22:31.749Z,101254.20
2018-09-02T03:24:59.968Z,101247.39
2018-09-02T03:27:28.187Z,101252.08
2018-09-02T03:29:56.492Z,101252.87
2018-09-02T03:32:24.674Z,101253.31
2018-09-02T03:34:52.904Z,101248.83
2018-09-02T03:37:21.223Z,101250.83
2018-09-02T03:39:49.373Z,101242.55
2018-09-02T03:42:18.311Z,101246.70
2018-09-02T03:44:46.665Z,101253.55
2018-09-02T03:47:14.807Z,101252.91
2018-09-02T03:49:42.904Z,101248.54
2018-09-02T03:52:11.026Z,101247.10
2018-09-02T03:54:39.393Z,101247.59
2018-09-02T03:57:07.621Z,101234.25
2018-09-02T03:59:36.053Z,101240.78
2018-09-02T04:02:04.279Z,101234.21
2018-09-02T04:04:32.388Z,101238.54
2018-09-02T04:07:00.543Z,101239.75
2018-09-02T04:09:28.835Z,101234.73
2018-09-02T04:11:57.056Z,101235.14
2018-09-02T04:14:25.309Z,101240.66
2018-09-02T04:16:53.561Z,101235.86
2018-09-02T04:19:21.808Z,101233.30
2018-09-02T04:21:50.078Z,101233.86
2018-09-02T04:24:18.343Z,101235.38
2018-09-02T04:26:46.671Z,101231.65
2018-09-02T04:29:15.184Z,101228.69
2018-09-02T04:31:43.418Z,101231.66
2018-09-02T04:34:11.739Z,101234.90
2018-09-02T04:36:40.004Z,101228.41
2018-09-02T04:39:09.305Z,101231.66
2018-09-02T04:41:37.943Z,101234.38
2018-09-02T04:44:06.140Z,101230.81
2018-09-02T04:46:34.752Z,101228.45
2018-09-02T04:49:03.127Z,101232.61
2018-09-02T04:51:31.369Z,101236.98
2018-09-02T04:53:59.657Z,101230.41
2018-09-02T04:56:27.831Z,101231.65
2018-09-02T04:58:56.107Z,101232.12
2018-09-02T05:01:24.330Z,101236.56
2018-09-02T05:03:53.062Z,101239.51
2018-09-02T05:06:21.272Z,101232.38
2018-09-02T05:08:49.542Z,101236.82
2018-09-02T05:11:17.918Z,101241.88
2018-09-02T05:13:46.100Z,101234.75
2018-09-02T05:16:14.810Z,101238.67
2018-09-02T05:18:43.079Z,101234.27
2018-09-02T05:21:11.320Z,101231.69
2018-09-02T05:23:39.552Z,101232.60
2018-09-02T05:26:07.864Z,101236.00
2018-09-02T05:28:36.046Z,101234.50
2018-09-02T05:31:04.509Z,101232.47
2018-09-02T05:33:32.945Z,101234.05
2018-09-02T05:36:01.102Z,101234.75
2018-09-02T05:38:30.257Z,101227.06
2018-09-02T05:40:58.405Z,101222.86
2018-09-02T05:43:26.575Z,101224.40
2018-09-02T05:45:54.889Z,101222.73
2018-09-02T05:48:23.165Z,101221.36
2018-09-02T05:50:51.351Z,101224.72
2018-09-02T05:53:19.665Z,101226.14
2018-09-02T05:55:47.781Z,101227.50
2018-09-02T05:58:16.020Z,101218.84
2018-09-02T06:00:44.424Z,101223.02
2018-09-02T06:03:12.641Z,101219.28
2018-09-02T06:05:41.150Z,101216.21
2018-09-02T06:08:09.322Z,101216.52
2018-09-02T06:10:37.591Z,101217.04
2018-09-02T06:13:05.955Z,101217.86
2018-09-02T06:15:34.274Z,101212.58
2018-09-02T06:18:02.481Z,101210.94
2018-09-02T06:20:30.639Z,101211.99
2018-09-02T06:22:58.719Z,101213.67
2018-09-02T06:25:27.023Z,101212.23
2018-09-02T06:27:55.500Z,101208.67
2018-09-02T06:30:23.728Z,101208.55
2018-09-02T06:32:51.986Z,101215.08
2018-09-02T06:35:20.188Z,101220.83
2018-09-02T06:37:48.496Z,101223.84
2018-09-02T06:40:16.720Z,101229.05
2018-09-02T06:42:44.888Z,101226.63
2018-09-02T06:45:13.036Z,101227.02
2018-09-02T06:47:41.254Z,101228.80
2018-09-02T06:50:09.370Z,101232.48
2018-09-02T06:52:37.536Z,101226.04
2018-09-02T06:55:05.778Z,101235.20
2018-09-02T06:57:33.932Z,101230.05
2018-09-02T07:00:02.043Z,101231.64
2018-09-02T07:02:30.179Z,101233.00
2018-09-02T07:04:58.337Z,101235.73
2018-09-02T07:07:26.612Z,101238.70
2018-09-02T07:09:54.673Z,101237.09
2018-09-02T07:12:22.849Z,101233.41
2018-09-02T07:14:51.178Z,101228.40
2018-09-02T07:17:19.337Z,101236.58
2018-09-02T07:19:47.644Z,101239.30
2018-09-02T07:22:15.884Z,101238.09
2018-09-02T07:24:44.098Z,101234.69
2018-09-02T07:27:12.336Z,101234.15
2018-09-02T07:29:40.593Z,101244.07
2018-09-02T07:32:08.671Z,101246.29
2018-09-02T07:34:37.129Z,101242.36
2018-09-02T07:37:05.294Z,101240.01
2018-09-02T07:39:33.701Z,101248.73
2018-09-02T07:42:01.907Z,101255.30
2018-09-02T07:44:30.119Z,101256.70
2018-09-02T07:46:58.253Z,101251.08
2018-09-02T07:49:26.457Z,101250.27
2018-09-02T07:51:54.647Z,101255.40
2018-09-02T07:54:22.803Z,101257.13
2018-09-02T07:56:50.996Z,101264.53
2018-09-02T07:59:19.177Z,101259.34
2018-09-02T08:01:48.311Z,101259.27
2018-09-02T08:04:16.414Z,101253.22
2018-09-02T08:06:44.803Z,101260.78
2018-09-02T08:09:12.982Z,101253.19
2018-09-02T08:11:41.543Z,101255.53
2018-09-02T08:14:09.797Z,101256.71
2018-09-02T08:16:38.013Z,101257.22
2018-09-02T08:19:06.162Z,101245.40
2018-09-02T08:21:34.359Z,101252.54
2018-09-02T08:24:02.592Z,101254.59
2018-09-02T08:26:30.806Z,101249.06
2018-09-02T08:28:59.030Z,101247.94
2018-09-02T08:31:27.226Z,101238.27
2018-09-02T08:33:55.476Z,101234.17
2018-09-02T08:36:23.711Z,101235.16
2018-09-02T08:38:51.893Z,101242.87
2018-09-02T08:41:20.012Z,101241.41
2018-09-02T08:43:48.154Z,101235.37
2018-09-02T08:46:16.546Z,101228.43
2018-09-02T08:48:44.626Z,101238.17
2018-09-02T08:51:12.827Z,101240.77
2018-09-02T08:53:41.048Z,101235.25
2018-09-02T08:56:09.293Z,101230.33
2018-09-02T08:58:37.405Z,101228.97
2018-09-02T09:01:05.674Z,101241.45
2018-09-02T09:03:33.993Z,101239.17
2018-09-02T09:06:02.287Z,101229.47
2018-09-02T09:08:30.752Z,101236.52
2018-09-02T09:10:59.961Z,101232.53
2018-09-02T09:13:28.390Z,101226.87
2018-09-02T09:15:56.604Z,101234.49
2018-09-02T09:18:24.862Z,101227.81
2018-09-02T09:20:53.124Z,101220.19
2018-09-02T09:23:21.394Z,101216.00
2018-09-02T09:25:50.330Z,101229.42
2018-09-02T09:28:18.840Z,101216.63
2018-09-02T09:30:47.137Z,101212.10
2018-09-02T09:33:15.990Z,101228.42
2018-09-02T09:35:44.146Z,101216.83
2018-09-02T09:38:12.393Z,101224.42
2018-09-02T09:40:40.667Z,101218.28
2018-09-02T09:43:08.955Z,101224.84
2018-09-02T09:45:37.129Z,101211.23
2018-09-02T09:48:05.356Z,101223.14
2018-09-02T09:50:33.616Z,101220.83
2018-09-02T09:53:01.814Z,101217.42
2018-09-02T09:55:30.201Z,101208.83
2018-09-02T09:57:58.413Z,101210.42
2018-09-02T10:00:31.485Z,101217.30
2018-09-02T10:03:00.212Z,101213.63
2018-09-02T10:05:28.357Z,101209.55
2018-09-02T10:07:56.560Z,101206.06
2018-09-02T10:10:24.673Z,101201.87
2018-09-02T10:12:52.846Z,101196.55
2018-09-02T10:15:20.968Z,101199.41
2018-09-02T10:17:49.217Z,101194.20
2018-09-02T10:20:17.511Z,101190.40
2018-09-02T10:22:45.729Z,101197.14
2018-09-02T10:25:13.972Z,101186.86
2018-09-02T10:27:42.248Z,101185.78
2018-09-02T10:30:10.427Z,101187.39
2018-09-02T10:32:38.711Z,101186.29
2018-09-02T10:35:06.981Z,101185.08
2018-09-02T10:37:35.259Z,101181.03
2018-09-02T10:40:03.569Z,101178.09
2018-09-02T10:42:31.746Z,101188.41
2018-09-02T10:44:59.968Z,101181.86
2018-09-02T10:47:28.166Z,101183.84
2018-09-02T10:49:56.350Z,101178.73
2018-09-02T10:52:24.587Z,101178.25
2018-09-02T10:54:52.742Z,101176.68
2018-09-02T10:57:20.890Z,101172.73
2018-09-02T10:59:49.125Z,101173.92
2018-09-02T11:02:17.383Z,101165.77
2018-09-02T11:04:45.521Z,101158.03
2018-09-02T11:07:13.755Z,101156.13
2018-09-02T11:09:41.984Z,101150.88
2018-09-02T11:12:10.179Z,101148.20
2018-09-02T11:14:38.716Z,101144.45
2018-09-02T11:17:07.576Z,101140.61
2018-09-02T11:19:35.855Z,101138.35
2018-09-02T11:22:04.093Z,101138.23
2018-09-02T11:24:32.280Z,101127.59
2018-09-02T11:27:01.196Z,101132.44
2018-09-02T11:29:29.426Z,101131.16
2018-09-02T11:31:57.590Z,101132.38
2018-09-02T11:34:25.819Z,101133.28
2018-09-02T11:36:54.037Z,101131.39
2018-09-02T11:39:22.330Z,101130.86
2018-09-02T11:41:50.551Z,101123.95
2018-09-02T11:44:18.803Z,101123.62
2018-09-02T11:46:47.001Z,101116.27
2018-09-02T11:49:15.387Z,101121.50
2018-09-02T11:51:43.567Z,101115.59
2018-09-02T11:54:11.744Z,101126.34
2018-09-02T11:56:39.912Z,101123.59
2018-09-02T11:59:08.399Z,101120.39
2018-09-02T12:01:37.155Z,101113.31
2018-09-02T12:04:05.618Z,101115.27
2018-09-02T12:06:33.837Z,101119.70
2018-09-02T12:09:02.351Z,101114.45
2018-09-02T12:11:30.556Z,101116.21
2018-09-02T12:13:58.856Z,101109.44
2018-09-02T12:16:26.901Z,101108.91
2018-09-02T12:18:55.211Z,101112.50
2018-09-02T12:21:23.431Z,101113.53
2018-09-02T12:23:51.863Z,101113.14
2018-09-02T12:26:20.224Z,101122.15
2018-09-02T12:28:48.544Z,101113.20
2018-09-02T12:31:16.858Z,101112.13
2018-09-02T12:33:45.103Z,101112.63
2018-09-02T12:36:13.403Z,101112.45
2018-09-02T12:38:41.657Z,101113.98
2018-09-02T12:41:09.997Z,101122.37
2018-09-02T12:43:38.315Z,101116.91
2018-09-02T12:46:06.587Z,101113.45
2018-09-02T12:48:34.861Z,101116.27
2018-09-02T12:51:03.523Z,101113.23
2018-09-02T12:53:31.808Z,101119.42
2018-09-02T12:56:00.270Z,101113.19
2018-09-02T12:58:28.817Z,101112.66
2018-09-02T13:00:57.090Z,101110.53
2018-09-02T13:03:25.361Z,101112.75
2018-09-02T13:05:53.682Z,101112.66
2018-09-02T13:08:22.012Z,101112.16
2018-09-02T13:10:50.278Z,101100.49
2018-09-02T13:13:18.682Z,101100.61
2018-09-02T13:15:47.373Z,101099.52
2018-09-02T13:18:15.837Z,101100.06
2018-09-02T13:20:44.468Z,101092.00
2018-09-02T13:23:12.942Z,101092.93
2018-09-02T13:25:42.858Z,101088.25
2018-09-02T13:28:11.779Z,101085.73
2018-09-02T13:30:40.458Z,101087.61
2018-09-02T13:33:09.554Z,101085.97
2018-09-02T13:35:38.624Z,101081.36
2018-09-02T13:38:06.863Z,101081.82
2018-09-02T13:40:35.115Z,101086.12
2018-09-02T13:43:03.678Z,101074.78
2018-09-02T13:45:31.862Z,101081.50
2018-09-02T13:48:00.698Z,101070.87
2018-09-02T13:50:28.968Z,101066.47
2018-09-02T13:52:57.213Z,101073.34
2018-09-02T13:55:25.526Z,101069.06
2018-09-02T13:57:53.696Z,101062.16
2018-09-02T14:00:21.865Z,101064.33
2018-09-02T14:02:50.024Z,101059.25
2018-09-02T14:05:18.271Z,101057.93
2018-09-02T14:07:47.258Z,101059.07
2018-09-02T14:10:15.404Z,101055.20
2018-09-02T14:12:43.656Z,101050.73
2018-09-02T14:15:12.023Z,101051.77
2018-09-02T14:17:40.547Z,101049.61
2018-09-02T14:20:08.808Z,101047.63
2018-09-02T14:22:37.052Z,101048.84
2018-09-02T14:25:05.674Z,101041.73
2018-09-02T14:27:34.098Z,101038.63
2018-09-02T14:30:02.476Z,101036.78
2018-09-02T14:32:30.731Z,101036.20
2018-09-02T14:34:58.991Z,101039.26
2018-09-02T14:37:27.545Z,101030.02
2018-09-02T14:39:56.505Z,101033.41
2018-09-02T14:42:24.885Z,101032.89
2018-09-02T14:44:53.100Z,101028.48
2018-09-02T14:47:21.320Z,101030.83
2018-09-02T14:49:49.529Z,101030.17
2018-09-02T14:52:18.501Z,101023.19
2018-09-02T14:54:46.710Z,101030.10
2018-09-02T14:57:14.956Z,101033.22
2018-09-02T14:59:43.486Z,101032.05
2018-09-02T15:02:11.907Z,101030.28
2018-09-02T15:04:40.128Z,101034.91
2018-09-02T15:07:08.302Z,101038.42
2018-09-02T15:09:36.496Z,101035.96
2018-09-02T15:12:04.742Z,101041.16
2018-09-02T15:14:33.022Z,101042.80
2018-09-02T15:17:01.170Z,101051.75
2018-09-02T15:19:29.630Z,101049.87
2018-09-02T15:21:57.861Z,101055.91
2018-09-02T15:24:26.092Z,101046.10
2018-09-02T15:26:54.461Z,101051.72
2018-09-02T15:29:22.701Z,101046.56
2018-09-02T15:31:50.924Z,101038.91
2018-09-02T15:34:19.104Z,101037.49
2018-09-02T15:36:47.261Z,101028.44
2018-09-02T15:39:15.432Z,101025.09
2018-09-02T15:41:43.636Z,101028.94
2018-09-02T15:44:11.972Z,101023.62
2018-09-02T15:46:40.076Z,101021.53
2018-09-02T15:49:08.275Z,101021.83
2018-09-02T15:51:36.670Z,101022.47
2018-09-02T15:54:04.893Z,101028.78
2018-09-02T15:56:33.107Z,101027.18
2018-09-02T15:59:01.293Z,101021.91
2018-09-02T16:01:29.529Z,101017.56
2018-09-02T16:03:57.789Z,101019.80
2018-09-02T16:06:26.029Z,101013.13
2018-09-02T16:08:54.283Z,101022.67
2018-09-02T16:11:23.216Z,101020.50
2018-09-02T16:13:52.007Z,101013.99
2018-09-02T16:16:20.363Z,101018.94
2018-09-02T16:18:48.605Z,101009.85
2018-09-02T16:21:16.752Z,101013.31
2018-09-02T16:23:45.068Z,101018.22
2018-09-02T16:26:13.619Z,101009.22
2018-09-02T16:28:41.874Z,101013.39
2018-09-02T16:31:10.949Z,101012.69
2018-09-02T16:33:39.143Z,101018.25
2018-09-02T16:36:07.296Z,101014.71
2018-09-02T16:38:35.549Z,101007.59
2018-09-02T16:41:03.688Z,101008.84
2018-09-02T16:43:31.810Z,100996.46
2018-09-02T16:45:59.995Z,100995.39
2018-09-02T16:48:28.194Z,100995.90
2018-09-02T16:50:56.374Z,101004.88
2018-09-02T16:53:24.901Z,101002.90
2018-09-02T16:55:53.196Z,101002.94
2018-09-02T16:58:21.506Z,101003.97
2018-09-02T17:00:50.750Z,101005.64
2018-09-02T17:03:19.279Z,101003.09
2018-09-02T17:05:47.458Z,100995.72
2018-09-02T17:08:15.678Z,100990.25
2018-09-02T17:10:44.768Z,100991.77
2018-09-02T17:13:14.227Z,100986.19
2018-09-02T17:15:43.163Z,100995.75
2018-09-02T17:18:12.513Z,100990.55
2018-09-02T17:20:43.416Z,100986.94
2018-09-02T17:23:13.232Z,100986.41
2018-09-02T17:25:42.742Z,100983.09
2018-09-02T17:28:11.956Z,100988.42
2018-09-02T17:30:40.332Z,100990.38
2018-09-02T17:33:09.964Z,100994.20
2018-09-02T17:35:38.907Z,100991.73
2018-09-02T17:38:07.195Z,100985.44
2018-09-02T17:40:35.601Z,100988.86
2018-09-02T17:43:04.139Z,100989.39
2018-09-02T17:45:32.382Z,100987.77
2018-09-02T17:48:00.697Z,100997.01
2018-09-02T17:50:29.779Z,100996.95
2018-09-02T17:52:57.874Z,100985.98
2018-09-02T17:55:26.389Z,100989.50
2018-09-02T17:57:54.520Z,100986.45
2018-09-02T18:00:26.649Z,100989.43
2018-09-02T18:02:54.762Z,100986.66
2018-09-02T18:05:22.894Z,100983.88
2018-09-02T18:07:51.144Z,100989.30
2018-09-02T18:10:19.417Z,100984.88
2018-09-02T18:12:47.659Z,100984.88
2018-09-02T18:15:15.901Z,100987.82
2018-09-02T18:17:44.165Z,100987.55
2018-09-02T18:20:12.343Z,100998.22
2018-09-02T18:22:40.667Z,100991.39
2018-09-02T18:25:08.900Z,100994.66
2018-09-02T18:27:39.104Z,100991.91
2018-09-02T18:30:08.573Z,100994.44
2018-09-02T18:32:37.741Z,100984.09
2018-09-02T18:35:06.205Z,100988.09
2018-09-02T18:37:34.412Z,100984.33
2018-09-02T18:40:02.955Z,100979.13
2018-09-02T18:42:31.573Z,100978.80
2018-09-02T18:44:59.740Z,100979.64
2018-09-02T18:47:28.544Z,100973.30
2018-09-02T18:49:56.776Z,100968.52
2018-09-02T18:52:25.120Z,100967.94
2018-09-02T18:54:53.237Z,100958.91
2018-09-02T18:57:21.435Z,100955.64
2018-09-02T18:59:49.700Z,100949.40
2018-09-02T19:02:18.061Z,100954.55
2018-09-02T19:04:46.319Z,100948.30
2018-09-02T19:07:14.487Z,100942.04
2018-09-02T19:09:42.739Z,100942.09
2018-09-02T19:12:10.900Z,100937.64
2018-09-02T19:14:39.225Z,100936.80
2018-09-02T19:17:07.630Z,100933.16
2018-09-02T19:19:35.808Z,100939.94
2018-09-02T19:22:04.420Z,100937.66
2018-09-02T19:24:33.080Z,100930.53
2018-09-02T19:27:01.435Z,100921.68
2018-09-02T19:29:29.761Z,100917.25
2018-09-02T19:31:57.984Z,100922.52
2018-09-02T19:34:26.208Z,100916.22
2018-09-02T19:36:54.460Z,100911.92
2018-09-02T19:39:22.719Z,100908.14
2018-09-02T19:41:50.907Z,100910.36
2018-09-02T19:44:21.354Z,100911.52
2018-09-02T19:46:49.584Z,100911.52
2018-09-02T19:49:17.699Z,100917.25
2018-09-02T19:51:45.943Z,100916.25
2018-09-02T19:54:14.159Z,100914.58
2018-09-02T19:56:42.446Z,100923.14
2018-09-02T19:59:10.630Z,100915.73
2018-09-02T20:01:38.770Z,100920.30
2018-09-02T20:04:07.562Z,100917.88
2018-09-02T20:06:35.756Z,100914.37
2018-09-02T20:09:07.352Z,100918.72
2018-09-02T20:11:35.527Z,100918.61
2018-09-02T20:14:03.742Z,100906.05
2018-09-02T20:16:31.853Z,100912.61
2018-09-02T20:19:00.181Z,100910.25
2018-09-02T20:21:28.303Z,100912.17
2018-09-02T20:23:56.673Z,100912.72
2018-09-02T20:26:24.761Z,100916.39
2018-09-02T20:28:52.908Z,100910.69
2018-09-02T20:31:21.657Z,100908.47
2018-09-02T20:33:49.834Z,100905.41
2018-09-02T20:36:18.050Z,100902.75
2018-09-02T20:38:46.905Z,100902.74
2018-09-02T20:41:15.036Z,100898.59
2018-09-02T20:43:43.113Z,100892.34
2018-09-02T20:46:11.356Z,100891.70
2018-09-02T20:48:39.615Z,100888.77
2018-09-02T20:51:07.953Z,100889.41
2018-09-02T20:53:36.928Z,100886.94
2018-09-02T20:56:05.548Z,100885.20
2018-09-02T20:58:33.898Z,100878.31
2018-09-02T21:01:02.022Z,100874.95
2018-09-02T21:03:30.373Z,100874.32
2018-09-02T21:05:58.580Z,100871.26
2018-09-02T21:08:26.933Z,100865.84
2018-09-02T21:10:55.073Z,100868.56
2018-09-02T21:13:23.342Z,100874.27
2018-09-02T21:15:51.499Z,100864.31
2018-09-02T21:18:19.680Z,100864.58
2018-09-02T21:20:47.863Z,100858.91
2018-09-02T21:23:16.040Z,100857.02
2018-09-02T21:26:01.293Z,100849.31
2018-09-02T21:29:21.654Z,100854.07
2018-09-02T21:35:04.038Z,100841.55
2018-09-02T21:44:01.369Z,100835.06
2018-09-02T21:46:34.726Z,100824.46
2018-09-02T21:49:06.634Z,100823.67
2018-09-02T21:51:46.380Z,100812.20
2018-09-02T22:00:16.938Z,100790.52
2018-09-02T22:09:00.068Z,100794.71
2018-09-02T22:11:32.594Z,100799.34
2018-09-02T22:14:01.788Z,100791.17
2018-09-02T22:16:39.544Z,100794.79
2018-09-02T22:22:10.282Z,100795.09
2018-09-02T22:25:03.955Z,100789.14
2018-09-02T22:27:34.834Z,100773.59
2018-09-02T22:43:49.276Z,100764.72
2018-09-02T22:49:32.383Z,100765.89
2018-09-02T22:55:05.318Z,100754.70
